Time;durP1;ratioP1;P1;durP2;ratioP2;P2;SDS_P1;SDS_P2;PMS_P1;PMS_P2;Temp;Humidity;BMP_temperature;BMP_pressure;BME280_temperature;BME280_humidity;BME280_pressure;Samples;Min_cycle;Max_cycle;Signal;HPM_P1;HPM_P2
2022/11/10 00:00:54;;;;;;;14.52;4.43;;;17.90;90.10;;;;;;10565121;28;20044;-27
2022/11/10 00:05:57;;;;;;;14.85;3.95;;;17.30;91.30;;;;;;10548865;28;20036;-30
2022/11/10 00:11:05;;;;;;;14.52;4.80;;;18.10;90.10;;;;;;10520980;28;20121;-26
2022/11/10 00:21:30;;;;;;;11.82;4.43;;;18.20;90.10;;;;;;10556997;28;20048;-27
2022/11/10 00:26:32;;;;;;;11.13;4.60;;;18.80;85.50;;;;;;10545455;28;20078;-27
2022/11/10 00:31:34;;;;;;;8.45;4.50;;;18.90;85.30;;;;;;10550507;28;20519;-29
2022/11/10 00:36:37;;;;;;;9.80;2.65;;;19.00;83.60;;;;;;10525878;28;20048;-28
2022/11/10 00:41:40;;;;;;;10.85;3.88;;;18.60;86.40;;;;;;10529927;28;20094;-26
2022/11/10 00:46:43;;;;;;;13.43;3.88;;;18.80;85.40;;;;;;10527475;28;20102;-28
2022/11/10 00:51:46;;;;;;;;;;;18.40;87.30;;;;;;10535600;28;20382;-28
2022/11/10 00:56:48;;;;;;;7.68;3.40;;;18.30;88.80;;;;;;10547739;28;19970;-28
2022/11/10 01:01:50;;;;;;;11.70;3.70;;;18.70;86.20;;;;;;10514453;28;20052;-30
2022/11/10 01:06:53;;;;;;;13.35;3.20;;;18.10;89.40;;;;;;10508200;28;20048;-28
2022/11/10 01:11:55;;;;;;;10.23;3.40;;;18.50;87.30;;;;;;10508341;28;20053;-27
2022/11/10 01:16:56;;;;;;;10.50;3.40;;;18.80;84.80;;;;;;10508532;28;20114;-27
2022/11/10 01:22:00;;;;;;;9.20;2.42;;;18.80;85.10;;;;;;10510776;28;20131;-28
2022/11/10 01:27:02;;;;;;;9.45;3.13;;;18.80;85.00;;;;;;10512624;28;20135;-29
2022/11/10 01:32:04;;;;;;;5.82;1.88;;;18.20;88.90;;;;;;10507121;28;20079;-28
2022/11/10 01:37:07;;;;;;;6.20;2.78;;;18.30;89.00;;;;;;10550250;28;20446;-29
2022/11/10 01:42:09;;;;;;;12.55;2.05;;;17.80;91.30;;;;;;10553682;28;20439;-27
2022/11/10 01:47:11;;;;;;;9.27;2.30;;;16.00;96.00;;;;;;10537458;28;20039;-28
2022/11/10 01:52:15;;;;;;;18.47;4.37;;;16.20;95.60;;;;;;10535425;28;20060;-27
2022/11/10 01:57:17;;;;;;;21.88;2.40;;;15.70;97.00;;;;;;10531749;28;20439;-29
2022/11/10 02:02:25;;;;;;;13.68;1.85;;;15.30;98.40;;;;;;10564580;28;20074;-29
2022/11/10 02:07:29;;;;;;;5.63;2.00;;;16.10;95.10;;;;;;10547419;28;20048;-31
2022/11/10 02:12:37;;;;;;;3.28;1.50;;;17.60;92.10;;;;;;10552515;28;20047;-35
2022/11/10 02:17:39;;;;;;;12.02;2.13;;;18.20;89.90;;;;;;10546260;28;20080;-31
2022/11/10 02:22:43;;;;;;;11.68;2.10;;;17.30;92.80;;;;;;10531702;28;20851;-35
2022/11/10 02:27:45;;;;;;;10.02;2.05;;;18.30;88.30;;;;;;10538732;28;20132;-29
2022/11/10 02:32:46;;;;;;;4.85;1.60;;;18.30;86.20;;;;;;10529225;28;20073;-27
2022/11/10 02:37:50;;;;;;;6.38;1.92;;;18.50;87.20;;;;;;10528488;28;20052;-28
2022/11/10 02:42:51;;;;;;;4.68;1.85;;;18.80;85.40;;;;;;10539894;28;20552;-29
2022/11/10 02:47:55;;;;;;;6.82;1.77;;;18.90;84.70;;;;;;10524492;28;20233;-28
2022/11/10 02:52:58;;;;;;;7.72;2.10;;;19.00;83.90;;;;;;10524964;28;20045;-27
2022/11/10 02:58:00;;;;;;;5.00;1.95;;;18.90;83.70;;;;;;10521112;28;20048;-27
2022/11/10 03:03:02;;;;;;;5.55;1.50;;;18.90;84.40;;;;;;10529527;28;20122;-27
2022/11/10 03:08:05;;;;;;;9.10;1.67;;;18.90;84.10;;;;;;10530111;28;20067;-28
2022/11/10 03:13:07;;;;;;;4.80;1.45;;;18.70;85.20;;;;;;10528665;28;20113;-28
2022/11/10 03:18:09;;;;;;;5.90;1.58;;;18.90;84.30;;;;;;10522818;28;20555;-28
2022/11/10 03:23:12;;;;;;;8.37;1.57;;;18.10;87.80;;;;;;10535585;28;20093;-27
2022/11/10 03:28:15;;;;;;;14.35;2.53;;;18.00;88.40;;;;;;10538300;28;20551;-35
2022/11/10 03:33:17;;;;;;;6.07;1.88;;;17.10;91.60;;;;;;10526441;28;20544;-30
2022/11/10 03:38:20;;;;;;;6.88;1.75;;;17.40;92.40;;;;;;10549423;28;20079;-29
2022/11/10 03:43:22;;;;;;;12.63;1.90;;;17.90;90.90;;;;;;10548316;28;20039;-28
2022/11/10 03:48:24;;;;;;;16.77;2.67;;;18.20;85.10;;;;;;10564837;28;20096;-28
2022/11/10 03:53:27;;;;;;;4.87;1.30;;;16.70;94.00;;;;;;10567831;28;20043;-28
2022/11/10 03:58:29;;;;;;;9.65;1.92;;;17.70;91.70;;;;;;10538397;28;20076;-29
2022/11/10 04:03:30;;;;;;;8.97;1.93;;;17.60;91.10;;;;;;10568102;28;21536;-28
2022/11/10 04:19:27;;;;;;;15.77;1.77;;;17.30;92.40;;;;;;10537637;28;20147;-30
2022/11/10 04:24:30;;;;;;;13.63;2.40;;;16.70;93.90;;;;;;10548296;28;20059;-30
2022/11/10 04:29:32;;;;;;;9.40;1.65;;;15.40;96.70;;;;;;10518040;28;20498;-29
2022/11/10 04:34:34;;;;;;;9.77;2.30;;;15.20;97.10;;;;;;10536036;28;20067;-29
2022/11/10 04:39:37;;;;;;;22.50;2.83;;;15.90;96.10;;;;;;10529724;28;20044;-28
2022/11/10 04:44:39;;;;;;;5.72;1.23;;;15.80;95.30;;;;;;10533189;28;20044;-29
2022/11/10 04:49:41;;;;;;;13.90;2.13;;;16.20;95.80;;;;;;10544076;28;20040;-26
2022/11/10 04:54:44;;;;;;;13.50;2.47;;;16.30;94.80;;;;;;10514774;28;20052;-31
2022/11/10 04:59:46;;;;;;;13.50;1.38;;;15.40;96.90;;;;;;10541024;28;20128;-31
2022/11/10 05:04:48;;;;;;;10.23;1.43;;;15.70;97.50;;;;;;10535854;28;20447;-28
2022/11/10 05:09:51;;;;;;;8.13;1.40;;;16.90;93.70;;;;;;10525768;28;20411;-28
2022/11/10 05:14:53;;;;;;;12.15;1.67;;;17.90;90.60;;;;;;10541675;28;20056;-31
2022/11/10 05:19:55;;;;;;;8.93;1.43;;;17.90;90.10;;;;;;10532036;28;20078;-31
2022/11/10 05:24:58;;;;;;;5.93;1.43;;;17.70;90.10;;;;;;10525177;28;20447;-28
2022/11/10 05:30:00;;;;;;;10.88;2.25;;;17.70;91.10;;;;;;10513997;28;20165;-27
2022/11/10 05:35:02;;;;;;;13.03;1.50;;;16.10;96.10;;;;;;10508076;28;20098;-31
2022/11/10 05:40:06;;;;;;;16.63;2.97;;;16.90;92.70;;;;;;10508113;28;20048;-31
2022/11/10 05:45:09;;;;;;;7.85;1.27;;;17.20;92.10;;;;;;10512369;28;20531;-30
2022/11/10 05:50:11;;;;;;;10.40;1.77;;;16.30;95.10;;;;;;10510472;28;20053;-30
2022/11/10 05:55:15;;;;;;;11.38;1.88;;;17.00;93.10;;;;;;10507368;28;20060;-31
2022/11/10 06:00:20;;;;;;;10.95;1.65;;;16.50;93.10;;;;;;10516796;28;20516;-28
2022/11/10 06:05:22;;;;;;;6.70;1.55;;;14.50;99.30;;;;;;10511504;28;20048;-27
2022/11/10 06:10:25;;;;;;;10.63;2.27;;;15.90;96.90;;;;;;10510980;28;20045;-28
2022/11/10 06:15:28;;;;;;;10.15;1.60;;;14.70;99.40;;;;;;10528465;28;20079;-29
2022/11/10 06:20:30;;;;;;;20.58;2.90;;;16.50;95.00;;;;;;10536503;28;20143;-32
2022/11/10 06:25:35;;;;;;;19.10;2.87;;;15.00;97.00;;;;;;10515144;28;20065;-29
2022/11/10 06:30:38;;;;;;;9.20;1.02;;;14.90;99.20;;;;;;10505268;28;20047;-32
2022/11/10 06:35:40;;;;;;;10.20;2.35;;;16.10;95.00;;;;;;10531149;28;20083;-28
2022/11/10 06:40:43;;;;;;;15.00;2.17;;;16.90;92.90;;;;;;10546050;28;20044;-27
2022/11/10 06:45:45;;;;;;;6.32;1.30;;;15.70;96.70;;;;;;10547197;28;20399;-28
2022/11/10 06:50:47;;;;;;;11.27;1.77;;;16.20;96.00;;;;;;10528918;28;20552;-28
2022/11/10 06:55:50;;;;;;;18.75;2.20;;;15.50;97.80;;;;;;10514775;28;20092;-33
2022/11/10 07:00:52;;;;;;;12.88;2.08;;;15.50;98.00;;;;;;10506594;28;20481;-28
2022/11/10 07:15:29;;;;;;;9.95;2.00;;;15.10;98.40;;;;;;10549396;27;20753;-28
2022/11/10 07:20:31;;;;;;;6.13;1.70;;;14.90;98.10;;;;;;10512601;28;20067;-26
2022/11/10 07:25:35;;;;;;;12.57;2.08;;;16.60;94.90;;;;;;10512953;28;20456;-29
2022/11/10 07:30:40;;;;;;;9.48;1.95;;;16.20;94.30;;;;;;10529384;28;20097;-31
2022/11/10 07:35:42;;;;;;;11.18;1.55;;;15.90;96.00;;;;;;10530324;28;20522;-33
2022/11/10 07:40:44;;;;;;;8.57;1.57;;;15.60;96.70;;;;;;10514890;28;20048;-27
2022/11/10 07:45:48;;;;;;;15.03;2.00;;;15.90;96.40;;;;;;10517838;28;20056;-28
2022/11/10 07:50:50;;;;;;;20.98;2.83;;;15.80;96.10;;;;;;10516517;28;20090;-29
2022/11/10 07:55:53;;;;;;;14.37;1.87;;;15.00;98.40;;;;;;10520972;28;20048;-30
2022/11/10 08:00:57;;;;;;;14.88;2.20;;;15.90;96.70;;;;;;10507711;28;20063;-32
2022/11/10 08:05:58;;;;;;;13.23;2.08;;;15.30;97.50;;;;;;10523462;28;20044;-27
2022/11/10 08:11:00;;;;;;;22.00;2.40;;;15.10;98.00;;;;;;10522902;28;20055;-28
2022/11/10 08:16:04;;;;;;;20.40;2.30;;;15.00;99.00;;;;;;10515067;28;20047;-27
2022/11/10 08:21:06;;;;;;;19.30;2.53;;;15.30;98.20;;;;;;10510225;28;20060;-29
2022/11/10 08:26:08;;;;;;;6.82;1.65;;;15.10;98.50;;;;;;10491184;28;20041;-27
2022/11/10 08:31:11;;;;;;;4.43;1.63;;;16.60;94.30;;;;;;10486199;28;20147;-25
2022/11/10 08:36:14;;;;;;;8.77;1.77;;;16.00;96.60;;;;;;10466980;28;20063;-28
2022/11/10 08:41:16;;;;;;;7.97;1.83;;;14.70;99.10;;;;;;10472463;28;20063;-29
2022/11/10 08:46:19;;;;;;;14.33;2.80;;;15.50;96.90;;;;;;10469097;28;20427;-29
2022/11/10 08:51:21;;;;;;;7.05;2.55;;;15.60;98.20;;;;;;10463114;28;20970;-26
2022/11/10 08:56:23;;;;;;;16.50;2.83;;;14.80;99.70;;;;;;10456778;28;20045;-28
2022/11/10 09:01:26;;;;;;;12.17;2.43;;;14.40;99.90;;;;;;10468350;28;20474;-29
2022/11/10 09:06:28;;;;;;;15.52;2.28;;;15.40;98.60;;;;;;10478150;28;20141;-29
2022/11/10 09:11:30;;;;;;;12.67;1.80;;;15.50;98.20;;;;;;10485264;28;20053;-30
2022/11/10 09:16:34;;;;;;;14.05;2.28;;;16.40;96.10;;;;;;10487188;28;20075;-28
2022/11/10 09:21:36;;;;;;;12.98;2.22;;;16.90;94.20;;;;;;10469102;28;20099;-28
2022/11/10 09:26:38;;;;;;;19.17;2.70;;;15.90;97.90;;;;;;10484748;28;20590;-30
2022/11/10 09:31:43;;;;;;;15.73;2.75;;;15.40;99.20;;;;;;10488501;28;20550;-28
2022/11/10 09:36:45;;;;;;;12.93;2.88;;;15.10;99.90;;;;;;10476076;28;20507;-36
2022/11/10 09:41:47;;;;;;;10.30;2.20;;;15.20;99.90;;;;;;10483141;28;20108;-27
2022/11/10 09:46:53;;;;;;;26.07;2.87;;;16.00;97.90;;;;;;10469760;28;20084;-31
2022/11/10 09:51:57;;;;;;;12.63;2.88;;;15.30;99.90;;;;;;10470698;28;20109;-30
2022/11/10 09:57:00;;;;;;;11.25;2.47;;;15.40;99.90;;;;;;10481398;28;20499;-28
2022/11/10 10:02:10;;;;;;;17.98;3.08;;;16.50;97.30;;;;;;10477877;28;20111;-33
2022/11/10 10:07:17;;;;;;;11.88;2.22;;;16.00;98.40;;;;;;10495950;28;20052;-28
2022/11/10 10:12:36;;;;;;;9.73;2.22;;;16.00;98.50;;;;;;10484870;28;20105;-35
2022/11/10 10:17:47;;;;;;;19.83;2.63;;;15.80;99.90;;;;;;10490700;28;20150;-29
2022/11/10 10:23:04;;;;;;;10.98;2.58;;;15.70;99.30;;;;;;10494441;28;20080;-28
2022/11/10 10:28:13;;;;;;;11.90;2.67;;;15.90;99.00;;;;;;10477330;28;20047;-30
2022/11/10 10:33:18;;;;;;;12.65;2.78;;;15.70;99.40;;;;;;10480248;28;20045;-29
2022/11/10 10:38:26;;;;;;;10.68;2.55;;;16.10;98.20;;;;;;10476920;28;20126;-26
2022/11/10 10:43:28;;;;;;;10.48;2.08;;;16.30;97.60;;;;;;10468317;28;20135;-27
2022/11/10 10:48:31;;;;;;;12.67;2.07;;;16.30;97.80;;;;;;10476756;28;20043;-27
2022/11/10 10:53:45;;;;;;;23.60;3.15;;;15.60;99.90;;;;;;10490711;28;20052;-35
2022/11/10 10:58:53;;;;;;;16.20;2.58;;;15.80;99.20;;;;;;10498876;28;20107;-29
2022/11/10 11:03:56;;;;;;;14.07;2.40;;;16.40;98.00;;;;;;10486896;28;20115;-28
2022/11/10 11:09:00;;;;;;;10.45;2.05;;;16.00;99.00;;;;;;10479559;28;20135;-31
2022/11/10 11:14:18;;;;;;;9.50;2.55;;;16.30;97.40;;;;;;10481294;28;20434;-35
2022/11/10 11:19:27;;;;;;;15.25;2.55;;;15.90;99.30;;;;;;10477189;28;20122;-28
2022/11/10 11:24:37;;;;;;;9.38;2.20;;;16.40;97.40;;;;;;10498462;28;20481;-27
2022/11/10 11:30:08;;;;;;;10.07;2.10;;;15.80;99.10;;;;;;10487139;28;20047;-30
2022/11/10 11:35:19;;;;;;;19.42;2.60;;;16.60;96.90;;;;;;10464749;28;20040;-27
2022/11/10 11:40:27;;;;;;;8.18;1.98;;;15.70;99.40;;;;;;10463510;28;20071;-30
2022/11/10 11:45:39;;;;;;;16.02;3.63;;;15.90;99.10;;;;;;10485569;28;20040;-27
2022/11/10 11:50:49;;;;;;;8.03;2.00;;;15.90;98.50;;;;;;10474154;28;20539;-29
2022/11/10 11:56:05;;;;;;;11.25;2.00;;;16.10;98.60;;;;;;10504859;28;20095;-28
2022/11/10 12:01:22;;;;;;;14.38;1.77;;;15.20;99.90;;;;;;10483135;28;20098;-27
2022/11/10 12:06:43;;;;;;;14.20;2.38;;;15.40;99.90;;;;;;10485642;28;20056;-27
2022/11/10 12:11:58;;;;;;;12.30;2.65;;;16.10;98.40;;;;;;10480759;28;20225;-26
2022/11/10 12:17:09;;;;;;;5.57;1.30;;;16.30;97.60;;;;;;10477531;28;20139;-26
2022/11/10 12:22:23;;;;;;;17.27;2.83;;;16.50;97.10;;;;;;10494755;28;20044;-28
2022/11/10 12:27:30;;;;;;;15.70;1.80;;;16.50;96.70;;;;;;10493951;28;20556;-29
2022/11/10 12:32:40;;;;;;;9.18;1.70;;;16.20;97.70;;;;;;10504046;28;20049;-29
2022/11/10 12:37:48;;;;;;;11.77;2.47;;;16.20;98.20;;;;;;10474871;28;20053;-29
2022/11/10 12:42:55;;;;;;;10.07;1.42;;;16.10;98.30;;;;;;10467948;28;20070;-27
2022/11/10 12:47:58;;;;;;;15.80;2.13;;;16.30;97.40;;;;;;10489582;28;20044;-28
2022/11/10 12:53:03;;;;;;;;;;;16.20;97.60;;;;;;10472754;28;20110;-36
2022/11/10 12:58:07;;;;;;;15.18;3.25;;;16.20;99.30;;;;;;10492416;28;20019;-34
2022/11/10 13:03:15;;;;;;;14.27;2.38;;;16.10;98.90;;;;;;10496741;28;20082;-27
2022/11/10 13:08:26;;;;;;;16.85;1.85;;;14.80;99.90;;;;;;10470599;28;20501;-26
2022/11/10 13:13:28;;;;;;;10.65;2.60;;;15.30;99.90;;;;;;10492761;28;20048;-27
2022/11/10 13:18:57;;;;;;;9.48;2.22;;;15.80;99.90;;;;;;10492989;28;20124;-26
2022/11/10 13:24:22;;;;;;;13.25;2.25;;;16.30;98.20;;;;;;10491791;28;20098;-27
2022/11/10 13:29:33;;;;;;;14.50;1.50;;;16.10;97.80;;;;;;10491569;28;20122;-27
2022/11/10 13:34:36;;;;;;;12.48;1.40;;;17.10;96.20;;;;;;10484721;28;20586;-28
2022/11/10 13:39:40;;;;;;;15.27;2.83;;;16.40;98.60;;;;;;10490432;28;20197;-29
2022/11/10 13:44:43;;;;;;;20.10;2.58;;;15.60;99.60;;;;;;10470908;28;20057;-29
2022/11/10 13:50:00;;;;;;;7.13;1.65;;;15.60;99.90;;;;;;10480165;28;20079;-29
2022/11/10 13:55:21;;;;;;;6.78;1.90;;;15.10;99.90;;;;;;10486988;28;20060;-26
2022/11/10 14:00:26;;;;;;;9.80;1.80;;;16.90;98.80;;;;;;10481588;28;20068;-27
2022/11/10 14:06:04;;;;;;;8.82;1.38;;;16.60;98.50;;;;;;10480003;28;20114;-27
2022/11/10 14:11:15;;;;;;;11.85;2.15;;;16.70;96.50;;;;;;10483424;28;20110;-27
2022/11/10 14:16:22;;;;;;;13.05;2.20;;;16.00;98.30;;;;;;10482513;28;20055;-28
2022/11/10 14:21:29;;;;;;;10.95;1.42;;;16.00;97.30;;;;;;10477784;28;20040;-27
2022/11/10 14:26:35;;;;;;;10.27;1.40;;;16.50;98.90;;;;;;10502414;28;20423;-28
2022/11/10 14:31:37;;;;;;;11.43;1.45;;;16.00;99.90;;;;;;10489559;28;20492;-28
2022/11/10 14:36:39;;;;;;;5.50;1.60;;;16.20;96.50;;;;;;10476768;28;20149;-25
2022/11/10 14:41:48;;;;;;;3.57;1.30;;;16.50;97.20;;;;;;10500508;28;20375;-28
2022/11/10 14:46:50;;;;;;;5.20;1.25;;;17.30;97.60;;;;;;10482043;28;20057;-28
2022/11/10 14:52:00;;;;;;;12.10;1.70;;;17.40;96.20;;;;;;10484767;28;20045;-27
2022/11/10 14:57:05;;;;;;;8.75;1.73;;;17.40;96.60;;;;;;10500320;28;20055;-27
2022/11/10 15:02:13;;;;;;;10.68;1.85;;;17.50;96.00;;;;;;10474315;28;20079;-27
2022/11/10 15:07:16;;;;;;;17.77;2.28;;;15.80;97.30;;;;;;10484635;28;20044;-28
2022/11/10 15:12:26;;;;;;;14.75;1.45;;;16.10;96.20;;;;;;10474631;28;20481;-30
2022/11/10 15:17:45;;;;;;;8.85;1.80;;;15.90;99.90;;;;;;10476226;28;20048;-29
2022/11/10 15:22:49;;;;;;;12.65;2.10;;;16.60;94.70;;;;;;10484189;28;20091;-29
2022/11/10 15:27:59;;;;;;;4.30;1.20;;;16.70;98.40;;;;;;10487279;28;20090;-28
2022/11/10 15:33:09;;;;;;;5.13;1.73;;;17.10;96.70;;;;;;10486624;28;20161;-30
2022/11/10 15:38:31;;;;;;;5.50;1.80;;;16.70;98.70;;;;;;10486150;28;20102;-29
2022/11/10 15:43:35;;;;;;;11.60;1.90;;;16.00;99.90;;;;;;10494126;28;20048;-35
2022/11/10 15:48:39;;;;;;;6.60;1.40;;;16.20;96.80;;;;;;10495601;28;20102;-29
2022/11/10 15:53:43;;;;;;;12.27;1.52;;;16.30;97.10;;;;;;10473012;28;20083;-28
2022/11/10 15:58:52;;;;;;;3.97;1.40;;;16.80;95.20;;;;;;10474174;28;20135;-28
2022/11/10 16:03:55;;;;;;;7.80;1.73;;;17.60;97.40;;;;;;10465144;28;20647;-28
2022/11/10 16:08:56;;;;;;;17.10;2.40;;;16.60;95.40;;;;;;10465310;28;20072;-28
2022/11/10 16:14:00;;;;;;;7.03;1.37;;;15.80;98.20;;;;;;10466392;28;20048;-27
2022/11/10 16:19:02;;;;;;;6.65;1.73;;;16.30;98.70;;;;;;10480757;28;20041;-29
2022/11/10 16:24:04;;;;;;;10.10;1.30;;;15.20;98.20;;;;;;10467223;28;20102;-29
2022/11/10 16:29:12;;;;;;;8.75;1.30;;;15.90;99.90;;;;;;10461497;28;20072;-29
2022/11/10 16:34:14;;;;;;;6.70;1.63;;;15.90;96.00;;;;;;10467242;28;20053;-29
2022/11/10 16:39:17;;;;;;;10.87;1.77;;;15.90;99.90;;;;;;10473763;28;20048;-30
2022/11/10 16:44:21;;;;;;;;;;;16.20;95.40;;;;;;10485636;28;20560;-30
2022/11/10 16:49:30;;;;;;;6.43;1.88;;;16.10;99.80;;;;;;10490964;28;19931;-28
2022/11/10 16:54:32;;;;;;;7.95;1.60;;;15.70;99.70;;;;;;10490718;28;20063;-31
2022/11/10 16:59:35;;;;;;;8.97;1.63;;;16.00;99.50;;;;;;10505464;28;20053;-32
2022/11/10 17:04:37;;;;;;;3.55;1.05;;;15.60;99.40;;;;;;10504952;28;20124;-28
2022/11/10 17:09:38;;;;;;;10.80;2.03;;;16.50;99.70;;;;;;10463628;28;20103;-30
2022/11/10 17:14:42;;;;;;;8.10;1.30;;;15.20;98.30;;;;;;10480154;28;20541;-31
2022/11/10 17:19:46;;;;;;;9.15;1.65;;;16.60;97.70;;;;;;10487917;28;20496;-32
2022/11/10 17:24:51;;;;;;;13.23;1.65;;;16.80;97.10;;;;;;10474204;28;20049;-31
2022/11/10 17:29:55;;;;;;;12.60;2.13;;;16.70;97.90;;;;;;10493153;28;20083;-29
2022/11/10 17:34:56;;;;;;;11.10;1.50;;;17.00;94.00;;;;;;10476328;28;20155;-29
2022/11/10 17:39:59;;;;;;;15.07;1.97;;;17.90;92.80;;;;;;10474535;28;20854;-29
2022/11/10 17:45:02;;;;;;;4.35;1.35;;;17.30;95.60;;;;;;10468271;28;20553;-29
2022/11/10 17:50:05;;;;;;;6.82;1.27;;;17.90;95.40;;;;;;10489922;28;20130;-32
2022/11/10 17:55:16;;;;;;;9.73;1.55;;;17.80;95.70;;;;;;10487393;28;20122;-30
2022/11/10 18:00:20;;;;;;;7.15;1.95;;;17.80;94.00;;;;;;10489798;28;20040;-29
2022/11/10 18:05:22;;;;;;;8.38;1.75;;;17.90;95.20;;;;;;10504353;28;20054;-30
2022/11/10 18:10:24;;;;;;;7.25;2.22;;;16.80;96.50;;;;;;10488287;28;20123;-31
2022/11/10 18:15:27;;;;;;;10.83;2.37;;;16.30;99.90;;;;;;10501630;28;20084;-29
2022/11/10 18:20:29;;;;;;;5.80;2.20;;;16.30;98.50;;;;;;10465707;28;20080;-29
2022/11/10 18:25:31;;;;;;;8.05;2.10;;;16.40;99.80;;;;;;10484737;28;20132;-30
2022/11/10 18:30:35;;;;;;;12.47;1.80;;;17.30;92.40;;;;;;10487367;28;20131;-29
2022/11/10 18:35:38;;;;;;;10.75;2.17;;;15.40;98.00;;;;;;10472329;28;20546;-30
2022/11/10 18:40:40;;;;;;;10.30;2.50;;;15.50;99.90;;;;;;10481215;28;20041;-29
2022/11/10 18:45:43;;;;;;;8.73;1.90;;;15.40;99.90;;;;;;10479127;28;20220;-29
2022/11/10 18:50:45;;;;;;;8.95;1.67;;;15.10;99.90;;;;;;10477208;28;20036;-29
2022/11/10 18:55:53;;;;;;;7.23;2.83;;;14.80;99.90;;;;;;10484600;28;20428;-28
2022/11/10 19:01:03;;;;;;;12.82;2.13;;;14.40;99.90;;;;;;10494592;28;20443;-31
2022/11/10 19:06:06;;;;;;;10.52;2.20;;;14.10;99.90;;;;;;10488294;28;20045;-29
2022/11/10 19:11:09;;;;;;;10.00;1.40;;;14.00;99.90;;;;;;10457342;28;20126;-28
2022/11/10 19:16:14;;;;;;;12.65;2.47;;;15.30;99.90;;;;;;10489145;28;20076;-29
2022/11/10 19:21:18;;;;;;;7.63;1.65;;;14.10;99.90;;;;;;10481700;28;20469;-32
2022/11/10 19:26:20;;;;;;;4.28;1.45;;;14.90;99.90;;;;;;10502221;28;20048;-34
2022/11/10 19:31:24;;;;;;;15.07;2.28;;;15.60;99.90;;;;;;10494013;28;20041;-27
2022/11/10 19:36:27;;;;;;;9.35;2.03;;;16.00;99.90;;;;;;10487393;28;20476;-32
2022/11/10 19:41:31;;;;;;;7.60;2.45;;;16.10;97.10;;;;;;10480748;28;20094;-37
2022/11/10 19:46:35;;;;;;;5.82;1.40;;;16.00;96.80;;;;;;10488384;28;20072;-37
2022/11/10 19:51:37;;;;;;;7.15;2.05;;;16.20;96.30;;;;;;10487080;28;20056;-29
2022/11/10 19:56:39;;;;;;;6.80;2.03;;;15.40;97.40;;;;;;10473140;28;20052;-28
2022/11/10 20:01:42;;;;;;;14.30;2.53;;;15.90;99.90;;;;;;10474420;28;20147;-28
2022/11/10 20:06:44;;;;;;;10.98;2.35;;;14.90;99.20;;;;;;10479745;28;20060;-32
2022/11/10 20:11:46;;;;;;;2.80;1.30;;;15.90;99.10;;;;;;10478815;28;20075;-27
2022/11/10 20:16:49;;;;;;;6.80;2.20;;;15.50;99.90;;;;;;10489045;28;20061;-28
2022/11/10 20:21:52;;;;;;;4.28;1.40;;;15.90;97.70;;;;;;10485158;28;20041;-34
2022/11/10 20:26:53;;;;;;;8.35;1.98;;;16.20;99.90;;;;;;10494723;28;20455;-29
2022/11/10 20:31:58;;;;;;;6.97;1.63;;;16.30;98.80;;;;;;10486241;28;20052;-26
2022/11/10 20:37:00;;;;;;;12.32;1.90;;;16.70;97.40;;;;;;10480520;28;20052;-29
2022/11/10 20:42:02;;;;;;;10.57;2.13;;;17.60;94.70;;;;;;10497561;28;20094;-29
2022/11/10 20:47:05;;;;;;;8.57;2.92;;;17.30;95.20;;;;;;10489179;28;20711;-30
2022/11/10 20:52:07;;;;;;;4.68;2.03;;;17.40;95.10;;;;;;10495812;28;20040;-28
2022/11/10 20:57:09;;;;;;;11.80;2.45;;;17.60;93.90;;;;;;10487173;28;20399;-28
2022/11/10 21:02:13;;;;;;;10.30;2.93;;;17.60;90.80;;;;;;10497403;28;20148;-27
2022/11/10 21:07:14;;;;;;;11.15;2.03;;;16.30;98.50;;;;;;10474035;28;20114;-29
2022/11/10 21:17:37;;;;;;;9.32;1.85;;;16.60;95.40;;;;;;10480660;28;20049;-29
2022/11/10 21:22:39;;;;;;;7.43;3.25;;;17.40;96.20;;;;;;10495512;28;20071;-28
2022/11/10 21:27:41;;;;;;;9.43;3.25;;;15.70;99.90;;;;;;10481637;28;20123;-27
2022/11/10 21:32:44;;;;;;;9.10;3.40;;;16.00;99.20;;;;;;10490988;28;20098;-29
2022/11/10 21:37:47;;;;;;;7.50;3.20;;;15.40;99.90;;;;;;10488425;28;20213;-29
2022/11/10 21:42:54;;;;;;;7.97;3.10;;;15.80;99.90;;;;;;10497677;28;20102;-28
2022/11/10 21:48:01;;;;;;;13.98;4.50;;;16.00;98.50;;;;;;10488599;28;20040;-28
2022/11/10 21:53:06;;;;;;;10.45;4.28;;;14.80;98.80;;;;;;10483048;28;20097;-31
2022/11/10 21:58:08;;;;;;;14.10;4.82;;;14.80;99.90;;;;;;10479560;28;20056;-28
2022/11/10 22:03:11;;;;;;;17.08;4.25;;;14.90;99.90;;;;;;10480311;28;20098;-33
2022/11/10 22:08:13;;;;;;;13.30;5.05;;;14.30;99.90;;;;;;10471793;28;20103;-30
2022/11/10 22:18:40;;;;;;;12.13;5.05;;;16.00;97.80;;;;;;10493439;28;20056;-29
2022/11/10 22:29:01;;;;;;;9.88;4.63;;;16.00;96.10;;;;;;10471036;28;20123;-32
2022/11/10 22:34:04;;;;;;;13.80;4.47;;;14.90;99.90;;;;;;10472016;28;20095;-34
2022/11/10 22:39:06;;;;;;;5.95;2.78;;;15.20;98.00;;;;;;10485606;28;20106;-32
2022/11/10 22:44:10;;;;;;;14.07;3.50;;;14.90;99.90;;;;;;10468562;28;20056;-28
2022/11/10 22:49:15;;;;;;;10.00;3.40;;;15.00;99.90;;;;;;10503442;28;20133;-28
2022/11/10 22:54:19;;;;;;;12.15;3.20;;;14.80;99.90;;;;;;10489322;28;20139;-26
2022/11/10 22:59:21;;;;;;;12.68;5.70;;;16.10;98.70;;;;;;10489713;28;20048;-26
2022/11/10 23:04:24;;;;;;;16.25;4.75;;;14.50;99.90;;;;;;10475275;28;20080;-29
2022/11/10 23:09:26;;;;;;;12.48;4.28;;;14.70;99.90;;;;;;10473677;28;20049;-29
2022/11/10 23:14:28;;;;;;;7.67;4.30;;;15.60;95.70;;;;;;10469246;28;20092;-28
2022/11/10 23:19:31;;;;;;;7.60;4.20;;;15.10;99.90;;;;;;10483954;28;20095;-28
2022/11/10 23:24:33;;;;;;;8.60;4.45;;;15.80;98.20;;;;;;10492021;28;20141;-35
2022/11/10 23:29:35;;;;;;;17.20;6.27;;;15.40;98.40;;;;;;10472430;28;20056;-26
2022/11/10 23:34:38;;;;;;;8.10;5.33;;;14.10;99.90;;;;;;10482579;28;20055;-31
2022/11/10 23:39:40;;;;;;;8.50;2.65;;;16.20;96.10;;;;;;10465548;28;20068;-27
2022/11/10 23:44:42;;;;;;;20.40;6.73;;;16.10;97.90;;;;;;10480844;28;20044;-28
2022/11/10 23:49:45;;;;;;;12.30;6.00;;;15.30;98.90;;;;;;10475909;28;20150;-26
2022/11/10 23:54:47;;;;;;;4.82;1.73;;;16.00;98.40;;;;;;10482104;28;20099;-27
2022/11/10 23:59:49;;;;;;;12.47;6.20;;;16.90;95.50;;;;;;10484049;28;20056;-29
